Time;durP1;ratioP1;P1;durP2;ratioP2;P2;SDS_P1;SDS_P2;PMS_P1;PMS_P2;Temp;Humidity;BMP_temperature;BMP_pressure;BME280_temperature;BME280_humidity;BME280_pressure;Samples;Min_cycle;Max_cycle;Signal;HPM_P1;HPM_P2
2024/01/04 00:01:39;;;;;;;;;;;6.20;99.90;;;;;;5036869;28;19924;-75
2024/01/04 00:04:05;;;;;;;;;;;6.20;99.90;;;;;;5056003;28;19924;-74
2024/01/04 00:06:30;;;;;;;;;;;6.20;99.90;;;;;;5055893;28;20026;-74
2024/01/04 00:08:56;;;;;;;;;;;6.20;99.90;;;;;;5038817;28;19935;-75
2024/01/04 00:11:21;;;;;;;;;;;6.20;99.90;;;;;;5056059;28;20263;-75
2024/01/04 00:13:47;;;;;;;;;;;6.20;99.90;;;;;;5037878;28;20236;-73
2024/01/04 00:16:12;;;;;;;;;;;6.20;99.90;;;;;;5037814;28;19982;-75
2024/01/04 00:18:38;;;;;;;;;;;6.20;99.90;;;;;;5056674;28;19974;-75
2024/01/04 00:21:04;;;;;;;;;;;6.10;99.90;;;;;;5040510;28;20407;-74
2024/01/04 00:23:31;;;;;;;;;;;6.10;99.90;;;;;;5036828;28;19924;-74
2024/01/04 00:25:57;;;;;;;;;;;6.10;99.90;;;;;;5039412;28;21237;-74
2024/01/04 00:28:22;;;;;;;;;;;6.10;99.90;;;;;;5039667;28;19924;-73
2024/01/04 00:30:48;;;;;;;;;;;6.10;99.90;;;;;;5037241;28;19928;-74
2024/01/04 00:33:13;;;;;;;;;;;6.10;99.90;;;;;;5039092;28;19924;-74
2024/01/04 00:35:39;;;;;;;;;;;6.00;99.90;;;;;;5060228;28;19944;-75
2024/01/04 00:38:04;;;;;;;;;;;6.10;99.90;;;;;;5043967;28;20398;-74
2024/01/04 00:40:30;;;;;;;;;;;6.00;99.90;;;;;;5040674;28;19924;-74
2024/01/04 00:42:57;;;;;;;;;;;6.10;99.90;;;;;;5041973;28;20338;-74
2024/01/04 00:45:23;;;;;;;;;;;6.00;99.90;;;;;;5053063;28;20343;-74
2024/01/04 00:47:48;;;;;;;;;;;6.00;99.90;;;;;;5039358;28;20129;-74
2024/01/04 00:50:14;;;;;;;;;;;6.00;99.90;;;;;;5038443;28;19942;-74
2024/01/04 00:52:39;;;;;;;;;;;6.00;99.90;;;;;;5036787;28;20027;-74
2024/01/04 00:55:05;;;;;;;;;;;6.00;99.90;;;;;;5056831;28;19924;-74
2024/01/04 00:57:31;;;;;;;;;;;5.90;99.90;;;;;;5039726;28;19924;-74
2024/01/04 00:59:56;;;;;;;;;;;5.90;99.90;;;;;;5038407;28;19967;-74
2024/01/04 01:02:22;;;;;;;;;;;5.80;99.90;;;;;;5038350;28;19935;-74
2024/01/04 01:04:47;;;;;;;;;;;5.90;99.90;;;;;;5055735;28;19928;-74
2024/01/04 01:07:13;;;;;;;;;;;5.90;99.90;;;;;;5041194;28;19924;-74
2024/01/04 01:09:38;;;;;;;;;;;5.80;99.90;;;;;;5057139;28;19928;-74
2024/01/04 01:12:04;;;;;;;;;;;5.90;99.90;;;;;;5036767;28;20069;-74
2024/01/04 01:14:29;;;;;;;;;;;5.80;99.90;;;;;;5037358;28;20287;-75
2024/01/04 01:16:55;;;;;;;;;;;5.80;99.90;;;;;;5038889;28;19931;-74
2024/01/04 01:19:21;;;;;;;;;;;5.80;99.90;;;;;;5040060;28;19963;-74
2024/01/04 01:21:46;;;;;;;;;;;6.00;99.90;;;;;;5037431;28;20612;-73
2024/01/04 01:24:12;;;;;;;;;;;5.80;99.90;;;;;;5037743;28;20394;-73
2024/01/04 01:26:37;;;;;;;;;;;5.80;99.90;;;;;;5058670;28;19928;-74
2024/01/04 01:29:03;;;;;;;;;;;5.90;99.90;;;;;;5053835;28;19924;-73
2024/01/04 01:31:28;;;;;;;;;;;5.90;99.90;;;;;;5043498;28;19928;-74
2024/01/04 01:33:54;;;;;;;;;;;5.80;99.90;;;;;;5054470;28;20280;-73
2024/01/04 01:36:19;;;;;;;;;;;5.70;99.90;;;;;;5053615;28;19920;-73
2024/01/04 01:38:45;;;;;;;;;;;5.80;99.90;;;;;;5042659;28;20019;-73
2024/01/04 01:41:11;;;;;;;;;;;5.50;99.90;;;;;;5052020;28;20031;-73
2024/01/04 01:43:36;;;;;;;;;;;5.50;99.90;;;;;;5040400;28;19986;-74
2024/01/04 01:46:02;;;;;;;;;;;5.70;99.90;;;;;;5036901;28;20021;-74
2024/01/04 01:48:28;;;;;;;;;;;5.40;99.90;;;;;;5054514;28;19933;-75
2024/01/04 01:50:54;;;;;;;;;;;5.40;99.90;;;;;;5056017;28;19955;-73
2024/01/04 01:53:20;;;;;;;;;;;5.40;99.90;;;;;;5061547;28;19935;-75
2024/01/04 01:55:46;;;;;;;;;;;5.30;99.90;;;;;;5055402;28;20465;-74
2024/01/04 01:58:12;;;;;;;;;;;5.40;99.90;;;;;;5035479;28;20462;-74
2024/01/04 02:00:37;;;;;;;;;;;5.30;99.90;;;;;;5038149;28;20376;-72
2024/01/04 02:03:04;;;;;;;;;;;5.30;99.90;;;;;;5042534;28;19982;-73
2024/01/04 02:05:30;;;;;;;;;;;5.20;99.90;;;;;;5056704;28;19978;-72
2024/01/04 02:07:56;;;;;;;;;;;5.40;99.90;;;;;;5045029;28;19921;-73
2024/01/04 02:10:21;;;;;;;;;;;5.30;99.90;;;;;;5043132;28;19928;-73
2024/01/04 02:12:47;;;;;;;;;;;5.10;99.90;;;;;;5047283;28;20376;-73
2024/01/04 02:15:13;;;;;;;;;;;5.30;99.90;;;;;;5040480;28;19927;-74
2024/01/04 02:17:39;;;;;;;;;;;5.00;99.90;;;;;;5037525;28;19920;-73
2024/01/04 02:20:05;;;;;;;;;;;4.90;99.90;;;;;;5035741;28;20398;-73
2024/01/04 02:22:31;;;;;;;;;;;4.90;99.90;;;;;;5056060;28;19940;-73
2024/01/04 02:24:56;;;;;;;;;;;4.90;99.90;;;;;;5033276;28;20338;-74
2024/01/04 02:27:22;;;;;;;;;;;4.90;99.90;;;;;;5058011;28;19924;-74
2024/01/04 02:29:47;;;;;;;;;;;4.90;99.90;;;;;;5035627;28;19970;-73
2024/01/04 02:32:13;;;;;;;;;;;5.30;99.90;;;;;;5055214;28;20228;-74
2024/01/04 02:34:38;;;;;;;;;;;4.90;99.90;;;;;;5046475;28;19934;-74
2024/01/04 02:37:04;;;;;;;;;;;4.90;99.90;;;;;;5038410;28;20083;-74
2024/01/04 02:39:30;;;;;;;;;;;4.90;99.90;;;;;;5060044;28;19920;-74
2024/01/04 02:41:55;;;;;;;;;;;4.90;99.90;;;;;;5049283;28;20347;-73
2024/01/04 02:44:21;;;;;;;;;;;4.90;99.90;;;;;;5049700;28;20359;-74
2024/01/04 02:46:48;;;;;;;;;;;4.90;99.90;;;;;;5046253;28;19920;-73
2024/01/04 02:49:13;;;;;;;;;;;4.90;99.90;;;;;;5050564;28;19920;-74
2024/01/04 02:51:39;;;;;;;;;;;4.80;99.90;;;;;;5043716;28;19921;-73
2024/01/04 02:54:04;;;;;;;;;;;4.80;99.90;;;;;;5052779;28;19920;-72
2024/01/04 02:56:30;;;;;;;;;;;4.80;99.90;;;;;;5044437;28;19927;-73
2024/01/04 02:58:55;;;;;;;;;;;4.80;99.90;;;;;;5050668;28;20360;-73
2024/01/04 03:01:21;;;;;;;;;;;4.80;99.90;;;;;;5054491;28;19927;-73
2024/01/04 03:03:55;;;;;;;;;;;4.80;99.90;;;;;;5067204;28;20337;-72
2024/01/04 03:06:24;;;;;;;;;;;4.70;99.90;;;;;;5053304;28;20361;-73
2024/01/04 03:08:49;;;;;;;;;;;4.70;99.90;;;;;;5036953;28;19924;-73
2024/01/04 03:11:15;;;;;;;;;;;4.70;99.90;;;;;;5043043;28;20421;-73
2024/01/04 03:13:41;;;;;;;;;;;4.90;99.90;;;;;;5045856;28;19920;-73
2024/01/04 03:16:06;;;;;;;;;;;4.70;99.90;;;;;;5050896;28;19931;-72
2024/01/04 03:18:32;;;;;;;;;;;4.70;99.90;;;;;;5068820;28;20376;-74
2024/01/04 03:20:57;;;;;;;;;;;4.70;99.90;;;;;;5047175;28;20310;-74
2024/01/04 03:23:23;;;;;;;;;;;4.60;99.90;;;;;;5050590;28;20083;-74
2024/01/04 03:25:48;;;;;;;;;;;4.60;99.90;;;;;;5064865;28;19921;-74
2024/01/04 03:28:14;;;;;;;;;;;4.60;99.90;;;;;;5045085;28;19935;-74
2024/01/04 03:30:39;;;;;;;;;;;4.60;99.90;;;;;;5043426;28;20448;-75
2024/01/04 03:33:05;;;;;;;;;;;4.60;99.90;;;;;;5049425;28;19931;-75
2024/01/04 03:35:30;;;;;;;;;;;4.50;99.90;;;;;;5044259;28;19952;-74
2024/01/04 03:37:56;;;;;;;;;;;4.50;99.90;;;;;;5061770;28;20016;-74
2024/01/04 03:40:21;;;;;;;;;;;4.50;99.90;;;;;;5050595;28;20291;-74
2024/01/04 03:42:47;;;;;;;;;;;4.50;99.90;;;;;;5055388;28;20023;-75
2024/01/04 03:45:13;;;;;;;;;;;4.50;99.90;;;;;;5036988;28;19921;-76
2024/01/04 03:47:39;;;;;;;;;;;4.50;99.90;;;;;;5046106;28;20009;-75
2024/01/04 03:50:05;;;;;;;;;;;4.50;99.90;;;;;;5052128;28;19928;-76
2024/01/04 03:52:31;;;;;;;;;;;4.50;99.90;;;;;;5053458;28;20011;-75
2024/01/04 03:54:56;;;;;;;;;;;4.50;99.90;;;;;;5052529;28;20019;-75
2024/01/04 03:57:22;;;;;;;;;;;4.50;99.90;;;;;;5053658;28;19927;-75
2024/01/04 03:59:47;;;;;;;;;;;4.80;99.90;;;;;;5048152;28;19978;-76
2024/01/04 04:02:13;;;;;;;;;;;4.50;99.90;;;;;;5040235;28;19921;-76
2024/01/04 04:04:38;;;;;;;;;;;4.60;99.90;;;;;;5050619;28;19924;-76
2024/01/04 04:07:04;;;;;;;;;;;4.50;99.90;;;;;;5038627;28;19947;-75
2024/01/04 04:09:29;;;;;;;;;;;4.50;99.90;;;;;;5049715;28;20379;-75
2024/01/04 04:11:55;;;;;;;;;;;4.90;99.90;;;;;;5065601;28;20030;-74
2024/01/04 04:14:21;;;;;;;;;;;4.50;99.90;;;;;;5038224;28;20017;-73
2024/01/04 04:16:46;;;;;;;;;;;5.20;99.90;;;;;;5046704;28;19975;-74
2024/01/04 04:19:12;;;;;;;;;;;4.60;99.90;;;;;;5048840;28;19943;-74
2024/01/04 04:21:38;;;;;;;;;;;4.50;99.90;;;;;;5035664;28;19920;-73
2024/01/04 04:24:03;;;;;;;;;;;4.50;99.90;;;;;;5053028;28;20299;-74
2024/01/04 04:26:29;;;;;;;;;;;4.50;99.90;;;;;;5033696;28;19921;-74
2024/01/04 04:28:55;;;;;;;;;;;4.50;99.90;;;;;;5031178;28;19983;-74
2024/01/04 04:31:21;;;;;;;;;;;5.30;99.90;;;;;;5033062;28;19921;-73
2024/01/04 04:33:47;;;;;;;;;;;4.50;99.90;;;;;;5050933;28;19927;-74
2024/01/04 04:36:13;;;;;;;;;;;4.50;99.90;;;;;;5049768;28;19974;-74
2024/01/04 04:38:39;;;;;;;;;;;4.90;99.90;;;;;;5050069;28;19924;-75
2024/01/04 04:41:05;;;;;;;;;;;4.80;99.90;;;;;;5049484;28;20364;-75
2024/01/04 04:43:31;;;;;;;;;;;4.80;99.90;;;;;;5050928;28;19920;-75
2024/01/04 04:45:57;;;;;;;;;;;5.20;99.90;;;;;;5050912;28;19920;-75
2024/01/04 04:48:23;;;;;;;;;;;4.50;99.90;;;;;;5051286;28;19920;-75
2024/01/04 04:50:49;;;;;;;;;;;5.00;99.90;;;;;;5039162;28;19920;-75
2024/01/04 04:53:15;;;;;;;;;;;4.50;99.90;;;;;;5051442;28;19925;-74
2024/01/04 04:55:40;;;;;;;;;;;4.50;99.90;;;;;;5059048;28;19942;-75
2024/01/04 04:58:06;;;;;;;;;;;4.50;99.90;;;;;;5068140;28;20390;-75
2024/01/04 05:00:31;;;;;;;;;;;4.50;99.90;;;;;;5051735;28;19951;-75
2024/01/04 05:02:57;;;;;;;;;;;5.10;99.90;;;;;;5044969;28;20315;-75
2024/01/04 05:05:22;;;;;;;;;;;4.50;99.90;;;;;;5030960;28;20265;-74
2024/01/04 05:07:48;;;;;;;;;;;4.50;99.90;;;;;;5047681;28;19916;-75
2024/01/04 05:10:13;;;;;;;;;;;4.50;99.90;;;;;;5047281;28;20311;-74
2024/01/04 05:12:39;;;;;;;;;;;4.50;99.90;;;;;;5051529;28;19921;-74
2024/01/04 05:15:05;;;;;;;;;;;5.00;99.90;;;;;;5036646;28;19936;-75
2024/01/04 05:17:30;;;;;;;;;;;4.50;99.90;;;;;;5047692;28;19924;-74
2024/01/04 05:19:56;;;;;;;;;;;4.50;99.90;;;;;;5051534;28;19943;-75
2024/01/04 05:22:22;;;;;;;;;;;4.50;99.90;;;;;;5043434;28;20215;-74
2024/01/04 05:24:47;;;;;;;;;;;5.10;99.90;;;;;;5033241;28;20337;-75
2024/01/04 05:27:13;;;;;;;;;;;4.50;99.90;;;;;;5050373;28;19916;-74
2024/01/04 05:29:38;;;;;;;;;;;4.70;99.90;;;;;;5050927;28;19921;-74
2024/01/04 05:32:04;;;;;;;;;;;4.40;99.90;;;;;;5050360;28;19924;-75
2024/01/04 05:34:32;;;;;;;;;;;4.40;99.90;;;;;;5040843;28;19917;-75
2024/01/04 05:37:00;;;;;;;;;;;4.40;99.90;;;;;;5031999;28;20012;-75
2024/01/04 05:39:26;;;;;;;;;;;4.40;99.90;;;;;;5031168;28;20399;-75
2024/01/04 05:41:51;;;;;;;;;;;4.50;99.90;;;;;;5036815;28;19968;-75
2024/01/04 05:44:17;;;;;;;;;;;4.50;99.90;;;;;;5049178;28;19967;-75
2024/01/04 05:46:43;;;;;;;;;;;4.30;99.90;;;;;;5040567;28;20343;-75
2024/01/04 05:49:08;;;;;;;;;;;4.30;99.90;;;;;;5031473;28;20283;-75
2024/01/04 05:51:34;;;;;;;;;;;4.30;99.90;;;;;;5043837;28;20351;-76
2024/01/04 05:54:02;;;;;;;;;;;4.30;99.90;;;;;;5049149;28;19966;-75
2024/01/04 05:56:27;;;;;;;;;;;4.30;99.90;;;;;;5052152;28;19921;-76
2024/01/04 05:58:53;;;;;;;;;;;4.90;99.90;;;;;;5035927;28;19974;-75
2024/01/04 06:01:18;;;;;;;;;;;4.10;99.90;;;;;;5038580;28;19928;-75
2024/01/04 06:03:44;;;;;;;;;;;4.10;99.90;;;;;;5030376;28;19931;-76
2024/01/04 06:06:11;;;;;;;;;;;4.10;99.90;;;;;;5045086;28;19928;-75
2024/01/04 06:08:37;;;;;;;;;;;4.10;99.90;;;;;;5048526;28;19920;-76
2024/01/04 06:11:04;;;;;;;;;;;4.00;99.90;;;;;;5040190;28;20557;-76
2024/01/04 06:13:30;;;;;;;;;;;4.30;99.90;;;;;;5066138;28;20400;-75
2024/01/04 06:15:56;;;;;;;;;;;3.90;99.90;;;;;;5036017;28;20036;-75
2024/01/04 06:18:21;;;;;;;;;;;3.90;99.90;;;;;;5051656;28;20023;-75
2024/01/04 06:20:47;;;;;;;;;;;3.80;99.90;;;;;;5050896;28;19920;-75
2024/01/04 06:23:13;;;;;;;;;;;3.80;99.90;;;;;;5051198;28;20461;-75
2024/01/04 06:25:38;;;;;;;;;;;3.70;99.90;;;;;;5046358;28;19921;-75
2024/01/04 06:28:04;;;;;;;;;;;3.70;99.90;;;;;;5032950;28;20435;-75
2024/01/04 06:30:29;;;;;;;;;;;3.70;99.90;;;;;;5050109;28;19928;-75
2024/01/04 06:32:55;;;;;;;;;;;3.50;99.90;;;;;;5050033;28;19920;-74
2024/01/04 06:35:20;;;;;;;;;;;3.60;99.90;;;;;;5045431;28;19921;-75
2024/01/04 06:37:46;;;;;;;;;;;3.60;99.90;;;;;;5050662;28;19920;-74
2024/01/04 06:40:12;;;;;;;;;;;3.70;99.90;;;;;;5049865;28;19943;-74
2024/01/04 06:42:37;;;;;;;;;;;3.60;99.90;;;;;;5049348;28;20295;-74
2024/01/04 06:45:04;;;;;;;;;;;3.50;99.90;;;;;;5042992;28;20136;-74
2024/01/04 06:47:29;;;;;;;;;;;3.60;99.90;;;;;;5030190;28;20393;-74
2024/01/04 06:49:55;;;;;;;;;;;3.30;99.90;;;;;;5046150;28;19977;-74
2024/01/04 06:52:20;;;;;;;;;;;3.60;99.90;;;;;;5049695;28;20379;-74
2024/01/04 06:54:46;;;;;;;;;;;3.60;99.90;;;;;;5049934;28;19920;-74
2024/01/04 06:57:12;;;;;;;;;;;3.40;99.90;;;;;;5066904;28;19927;-74
2024/01/04 06:59:38;;;;;;;;;;;3.40;99.90;;;;;;5049065;28;20358;-74
2024/01/04 07:02:04;;;;;;;;;;;3.80;99.90;;;;;;5049877;28;19931;-74
2024/01/04 07:04:30;;;;;;;;;;;4.20;99.90;;;;;;5047530;28;19920;-75
2024/01/04 07:06:56;;;;;;;;;;;3.80;99.90;;;;;;5050371;28;19925;-75
2024/01/04 07:09:22;;;;;;;;;;;3.40;99.90;;;;;;5046704;28;19954;-74
2024/01/04 07:11:47;;;;;;;;;;;3.60;99.90;;;;;;5038355;28;19944;-74
2024/01/04 07:14:13;;;;;;;;;;;3.80;99.90;;;;;;5030396;28;19960;-75
2024/01/04 07:16:45;;;;;;;;;;;3.90;99.90;;;;;;5040735;28;19947;-74
2024/01/04 07:19:11;;;;;;;;;;;3.50;99.90;;;;;;5048941;28;20393;-73
2024/01/04 07:21:36;;;;;;;;;;;3.60;99.90;;;;;;5042163;28;19920;-73
2024/01/04 07:24:02;;;;;;;;;;;3.70;99.90;;;;;;5050305;28;20273;-74
2024/01/04 07:26:28;;;;;;;;;;;3.60;99.90;;;;;;5052251;28;19921;-74
2024/01/04 07:28:53;;;;;;;;;;;3.30;99.90;;;;;;5052435;28;19923;-74
2024/01/04 07:31:20;;;;;;;;;;;3.40;99.90;;;;;;5053745;28;19971;-74
2024/01/04 07:33:45;;;;;;;;;;;4.00;99.90;;;;;;5053918;28;19926;-74
2024/01/04 07:36:11;;;;;;;;;;;3.50;99.90;;;;;;5054401;28;20011;-74
2024/01/04 07:38:37;;;;;;;;;;;3.70;99.90;;;;;;5052963;28;20352;-73
2024/01/04 07:41:03;;;;;;;;;;;4.00;99.90;;;;;;5049564;28;20352;-74
2024/01/04 07:43:29;;;;;;;;;;;3.50;99.90;;;;;;5033811;28;19978;-74
2024/01/04 07:45:54;;;;;;;;;;;4.00;99.90;;;;;;5036529;28;19924;-74
2024/01/04 07:48:20;;;;;;;;;;;3.60;99.90;;;;;;5034511;28;19921;-73
2024/01/04 07:50:46;;;;;;;;;;;4.00;99.90;;;;;;5051659;28;19921;-74
2024/01/04 07:53:12;;;;;;;;;;;3.40;99.90;;;;;;5042784;28;19947;-74
2024/01/04 07:55:38;;;;;;;;;;;3.60;99.90;;;;;;5052538;28;19967;-73
2024/01/04 07:58:03;;;;;;;;;;;3.80;99.90;;;;;;5053077;28;20383;-73
2024/01/04 08:00:29;;;;;;;;;;;3.50;99.90;;;;;;5053140;28;19928;-73
2024/01/04 08:02:54;;;;;;;;;;;3.40;99.90;;;;;;5052925;28;19924;-75
2024/01/04 08:05:20;;;;;;;;;;;3.80;99.90;;;;;;5048141;28;20007;-73
2024/01/04 08:07:46;;;;;;;;;;;3.60;99.90;;;;;;5031745;28;19923;-74
2024/01/04 08:10:12;;;;;;;;;;;3.40;99.90;;;;;;5045724;28;20298;-74
2024/01/04 08:12:40;;;;;;;;;;;3.60;99.90;;;;;;5070134;28;19917;-73
2024/01/04 08:15:08;;;;;;;;;;;3.60;99.90;;;;;;5041748;28;19970;-73
2024/01/04 08:17:35;;;;;;;;;;;3.50;99.90;;;;;;5049280;28;19921;-74
2024/01/04 08:20:00;;;;;;;;;;;3.40;99.90;;;;;;5042356;28;19956;-74
2024/01/04 08:22:26;;;;;;;;;;;3.70;99.90;;;;;;5066777;28;19995;-75
2024/01/04 08:24:51;;;;;;;;;;;3.50;99.90;;;;;;5068770;28;19927;-76
2024/01/04 08:27:18;;;;;;;;;;;3.50;99.90;;;;;;5050950;28;19920;-76
2024/01/04 08:29:48;;;;;;;;;;;3.70;99.90;;;;;;5080748;28;19951;-75
2024/01/04 08:32:14;;;;;;;;;;;3.60;99.90;;;;;;5045864;28;19966;-75
2024/01/04 08:34:39;;;;;;;;;;;3.80;99.90;;;;;;5044289;28;19920;-76
2024/01/04 08:37:05;;;;;;;;;;;3.60;99.90;;;;;;5049662;28;19943;-74
2024/01/04 08:39:31;;;;;;;;;;;3.90;99.90;;;;;;5047404;28;19920;-74
2024/01/04 08:41:57;;;;;;;;;;;3.70;99.90;;;;;;5045150;28;19943;-75
2024/01/04 08:44:23;;;;;;;;;;;3.90;99.90;;;;;;5050410;28;19920;-76
2024/01/04 08:46:50;;;;;;;;;;;4.30;99.90;;;;;;5066468;28;19920;-75
2024/01/04 08:49:16;;;;;;;;;;;3.70;99.90;;;;;;5046750;28;19924;-75
2024/01/04 08:51:41;;;;;;;;;;;3.90;99.90;;;;;;5049944;28;20015;-75
2024/01/04 08:54:10;;;;;;;;;;;4.10;99.90;;;;;;5047487;28;19927;-74
2024/01/04 08:56:36;;;;;;;;;;;3.70;99.90;;;;;;5050312;28;19975;-74
2024/01/04 08:59:02;;;;;;;;;;;3.90;99.90;;;;;;5047430;28;19924;-76
2024/01/04 09:01:31;;;;;;;;;;;4.00;99.90;;;;;;5048463;28;20327;-77
2024/01/04 09:03:57;;;;;;;;;;;3.90;99.90;;;;;;5046732;28;19921;-75
2024/01/04 09:06:22;;;;;;;;;;;4.00;99.90;;;;;;5053045;28;19974;-75
2024/01/04 09:08:48;;;;;;;;;;;4.50;99.90;;;;;;5050761;28;19921;-76
2024/01/04 09:11:16;;;;;;;;;;;4.50;99.90;;;;;;5052019;28;19964;-75
2024/01/04 09:13:44;;;;;;;;;;;4.10;99.90;;;;;;5036358;28;20411;-75
2024/01/04 09:16:10;;;;;;;;;;;4.20;99.90;;;;;;5033628;28;20018;-77
2024/01/04 09:18:35;;;;;;;;;;;4.30;99.90;;;;;;5037972;28;20011;-77
2024/01/04 09:21:01;;;;;;;;;;;4.10;99.90;;;;;;5048909;28;20407;-76
2024/01/04 09:23:26;;;;;;;;;;;4.80;99.90;;;;;;5052340;28;19920;-75
2024/01/04 09:25:52;;;;;;;;;;;4.30;99.90;;;;;;5035874;28;19927;-76
2024/01/04 09:28:18;;;;;;;;;;;4.20;99.90;;;;;;5031570;28;19921;-76
2024/01/04 09:30:44;;;;;;;;;;;4.30;99.90;;;;;;5037563;28;19967;-77
2024/01/04 09:33:11;;;;;;;;;;;4.30;99.90;;;;;;5031810;28;20009;-76
2024/01/04 09:35:37;;;;;;;;;;;4.30;99.90;;;;;;5065003;28;19920;-75
2024/01/04 09:38:03;;;;;;;;;;;4.50;99.90;;;;;;5048865;28;19990;-76
2024/01/04 09:40:28;;;;;;;;;;;4.30;99.90;;;;;;5051761;28;19924;-76
2024/01/04 09:42:54;;;;;;;;;;;4.30;99.90;;;;;;5049856;28;20124;-76
2024/01/04 09:45:22;;;;;;;;;;;4.40;99.90;;;;;;5048871;28;20023;-76
2024/01/04 09:47:50;;;;;;;;;;;4.70;99.90;;;;;;5047700;28;19920;-76
2024/01/04 09:50:15;;;;;;;;;;;4.30;99.90;;;;;;5041646;28;20006;-76
2024/01/04 09:52:45;;;;;;;;;;;4.10;99.90;;;;;;5068102;28;20657;-76
2024/01/04 09:55:11;;;;;;;;;;;4.30;99.90;;;;;;5051161;28;19955;-75
2024/01/04 09:57:37;;;;;;;;;;;4.20;99.90;;;;;;5050953;28;19928;-76
2024/01/04 10:00:04;;;;;;;;;;;4.20;99.90;;;;;;5049327;28;19920;-76
2024/01/04 10:02:32;;;;;;;;;;;4.30;99.90;;;;;;5051211;28;19920;-76
2024/01/04 10:04:59;;;;;;;;;;;4.20;99.90;;;;;;5051282;28;19924;-76
2024/01/04 10:07:27;;;;;;;;;;;4.40;99.90;;;;;;5035176;28;19924;-76
2024/01/04 10:09:57;;;;;;;;;;;4.80;99.90;;;;;;5030506;28;19948;-75
2024/01/04 10:12:24;;;;;;;;;;;4.30;99.90;;;;;;5031136;28;20007;-75
2024/01/04 10:14:50;;;;;;;;;;;4.40;99.90;;;;;;5032234;28;20287;-75
2024/01/04 10:17:16;;;;;;;;;;;4.60;99.90;;;;;;5064527;28;20003;-76
2024/01/04 10:19:41;;;;;;;;;;;4.70;99.90;;;;;;5030708;28;20007;-75
2024/01/04 10:22:08;;;;;;;;;;;5.80;99.90;;;;;;5030308;28;20424;-76
2024/01/04 10:24:37;;;;;;;;;;;4.70;99.90;;;;;;5031453;28;19920;-75
2024/01/04 10:27:03;;;;;;;;;;;4.80;99.90;;;;;;5030849;28;19928;-74
2024/01/04 10:29:29;;;;;;;;;;;4.80;99.90;;;;;;5045505;28;19990;-75
2024/01/04 10:32:05;;;;;;;;;;;5.20;99.90;;;;;;5044839;28;19924;-75
2024/01/04 10:34:33;;;;;;;;;;;4.90;99.90;;;;;;5050351;28;19921;-74
2024/01/04 10:37:12;;;;;;;;;;;4.90;99.90;;;;;;5050003;28;19954;-75
2024/01/04 10:39:39;;;;;;;;;;;4.90;99.90;;;;;;5050923;28;19970;-74
2024/01/04 10:42:05;;;;;;;;;;;4.70;99.90;;;;;;5048068;28;20546;-74
2024/01/04 10:44:34;;;;;;;;;;;5.00;99.90;;;;;;5046961;28;19943;-75
2024/01/04 10:47:03;;;;;;;;;;;5.60;99.90;;;;;;5050751;28;19920;-75
2024/01/04 10:49:29;;;;;;;;;;;5.90;99.90;;;;;;5050352;28;20352;-75
2024/01/04 10:51:58;;;;;;;;;;;7.00;99.90;;;;;;5047510;28;20011;-75
2024/01/04 10:54:28;;;;;;;;;;;8.30;99.90;;;;;;5031295;28;19920;-75
2024/01/04 10:56:55;;;;;;;;;;;9.90;99.90;;;;;;5051205;28;19927;-73
2024/01/04 10:59:21;;;;;;;;;;;11.20;99.90;;;;;;5053556;28;19964;-75
2024/01/04 11:01:47;;;;;;;;;;;12.40;99.90;;;;;;5053188;28;19936;-76
2024/01/04 11:04:12;;;;;;;;;;;13.20;99.90;;;;;;5051706;28;19920;-75
2024/01/04 11:06:42;;;;;;;;;;;13.40;99.90;;;;;;5053354;28;20326;-76
2024/01/04 11:09:08;;;;;;;;;;;13.10;99.90;;;;;;5046151;28;20205;-76
2024/01/04 11:11:34;;;;;;;;;;;12.30;99.90;;;;;;5051023;28;20335;-76
2024/01/04 11:13:59;;;;;;;;;;;;;;;;;;5060173;28;20379;-75
2024/01/04 11:16:28;;;;;;;;;;;10.40;99.90;;;;;;5052013;28;20012;-76
2024/01/04 11:19:14;;;;;;;;;;;10.10;99.90;;;;;;5049151;28;20026;-75
2024/01/04 11:21:39;;;;;;;;;;;9.80;99.90;;;;;;5022794;28;19954;-75
2024/01/04 11:24:07;;;;;;;;;;;9.00;99.90;;;;;;5053214;28;19926;-76
2024/01/04 11:26:39;;;;;;;;;;;8.60;99.90;;;;;;5040659;28;19916;-75
2024/01/04 11:29:09;;;;;;;;;;;8.30;99.90;;;;;;5049318;28;20252;-75
2024/01/04 11:31:44;;;;;;;;;;;7.90;99.90;;;;;;5069105;28;19924;-75
2024/01/04 11:34:10;;;;;;;;;;;7.70;99.90;;;;;;5072058;28;19966;-75
2024/01/04 11:36:36;;;;;;;;;;;7.40;99.90;;;;;;5054303;28;19920;-75
2024/01/04 11:39:01;;;;;;;;;;;7.30;99.90;;;;;;5052998;28;20256;-75
2024/01/04 11:41:34;;;;;;;;;;;7.30;99.90;;;;;;5054211;28;19950;-76
2024/01/04 11:44:00;;;;;;;;;;;6.90;99.90;;;;;;5042055;28;20004;-76
2024/01/04 11:46:26;;;;;;;;;;;6.70;99.90;;;;;;5053413;28;20355;-76
2024/01/04 11:48:53;;;;;;;;;;;7.60;99.90;;;;;;5054307;28;20283;-76
2024/01/04 11:51:28;;;;;;;;;;;6.50;99.90;;;;;;5088148;28;20355;-76
2024/01/04 11:53:54;;;;;;;;;;;6.40;99.90;;;;;;5051586;28;20129;-78
2024/01/04 11:56:20;;;;;;;;;;;6.30;99.90;;;;;;5054186;28;20269;-78
2024/01/04 11:58:46;;;;;;;;;;;6.20;99.90;;;;;;5051999;28;19921;-76
2024/01/04 12:01:11;;;;;;;;;;;6.20;99.90;;;;;;5053408;28;20322;-77
2024/01/04 12:03:37;;;;;;;;;;;6.60;99.90;;;;;;5052721;28;20431;-76
2024/01/04 12:06:06;;;;;;;;;;;6.00;99.90;;;;;;5043166;28;20391;-78
2024/01/04 12:08:32;;;;;;;;;;;6.00;99.90;;;;;;5048900;28;19917;-76
2024/01/04 12:10:58;;;;;;;;;;;6.00;99.90;;;;;;5031665;28;20209;-76
2024/01/04 12:13:24;;;;;;;;;;;6.00;99.90;;;;;;5058812;28;19927;-76
2024/01/04 12:15:51;;;;;;;;;;;6.20;99.90;;;;;;5068025;28;19921;-76
2024/01/04 12:18:16;;;;;;;;;;;6.00;99.90;;;;;;5071557;28;19920;-76
2024/01/04 12:20:43;;;;;;;;;;;6.10;99.90;;;;;;5048825;28;20002;-76
2024/01/04 12:23:10;;;;;;;;;;;6.10;99.90;;;;;;5047040;28;19924;-76
2024/01/04 12:25:37;;;;;;;;;;;6.20;99.90;;;;;;5086594;28;20003;-75
2024/01/04 12:28:03;;;;;;;;;;;6.10;99.90;;;;;;5051460;28;19916;-76
2024/01/04 12:30:29;;;;;;;;;;;6.00;99.90;;;;;;5068738;28;19920;-76
2024/01/04 12:32:58;;;;;;;;;;;6.10;99.90;;;;;;5048823;28;19928;-75
2024/01/04 12:35:23;;;;;;;;;;;6.50;99.90;;;;;;5046836;28;19920;-75
2024/01/04 12:37:59;;;;;;;;;;;6.80;99.90;;;;;;5066828;28;20019;-75
2024/01/04 12:40:25;;;;;;;;;;;6.80;99.90;;;;;;5046467;28;20284;-75
2024/01/04 12:42:51;;;;;;;;;;;7.00;99.90;;;;;;5031831;28;19921;-75
2024/01/04 12:45:16;;;;;;;;;;;6.70;99.90;;;;;;5036276;28;19964;-75
2024/01/04 12:47:42;;;;;;;;;;;6.70;99.90;;;;;;5042078;28;19932;-74
2024/01/04 12:50:09;;;;;;;;;;;6.60;99.90;;;;;;5069425;28;19989;-74
2024/01/04 12:52:37;;;;;;;;;;;6.60;99.90;;;;;;5047430;28;19924;-75
2024/01/04 12:55:02;;;;;;;;;;;6.60;99.90;;;;;;5051623;28;19924;-75
2024/01/04 12:57:28;;;;;;;;;;;6.60;99.90;;;;;;5049581;28;19921;-75
2024/01/04 12:59:54;;;;;;;;;;;6.50;99.90;;;;;;5068976;28;19964;-75
2024/01/04 13:02:19;;;;;;;;;;;6.60;99.90;;;;;;5068191;28;19921;-74
2024/01/04 13:04:45;;;;;;;;;;;6.60;99.90;;;;;;5050563;28;20003;-75
2024/01/04 13:07:10;;;;;;;;;;;6.60;99.90;;;;;;5043864;28;19990;-75
2024/01/04 13:09:36;;;;;;;;;;;6.90;99.90;;;;;;5045259;28;19935;-75
2024/01/04 13:12:02;;;;;;;;;;;6.70;99.90;;;;;;5050250;28;19920;-75
2024/01/04 13:14:28;;;;;;;;;;;6.70;99.90;;;;;;5046555;28;19921;-75
2024/01/04 13:16:54;;;;;;;;;;;6.80;99.90;;;;;;5062764;28;19931;-75
2024/01/04 13:19:19;;;;;;;;;;;6.80;99.90;;;;;;5046405;28;19920;-74
2024/01/04 13:21:45;;;;;;;;;;;6.70;99.90;;;;;;5045876;28;19920;-75
2024/01/04 13:24:10;;;;;;;;;;;6.80;99.90;;;;;;5057829;28;20387;-75
2024/01/04 13:26:36;;;;;;;;;;;6.80;99.90;;;;;;5047354;28;19943;-75
2024/01/04 13:29:02;;;;;;;;;;;6.80;99.90;;;;;;5045438;28;20016;-75
2024/01/04 13:31:28;;;;;;;;;;;6.80;99.90;;;;;;5031735;28;20389;-75
2024/01/04 13:33:54;;;;;;;;;;;6.70;99.90;;;;;;5033883;28;20012;-75
2024/01/04 13:36:19;;;;;;;;;;;6.80;99.90;;;;;;5044865;28;19921;-74
2024/01/04 13:38:45;;;;;;;;;;;6.90;99.90;;;;;;5050976;28;19927;-74
2024/01/04 13:41:10;;;;;;;;;;;7.40;99.90;;;;;;5051079;28;20368;-74
2024/01/04 13:43:36;;;;;;;;;;;7.00;99.90;;;;;;5066411;28;20261;-74
2024/01/04 13:46:01;;;;;;;;;;;7.00;99.90;;;;;;5067253;28;19931;-74
2024/01/04 13:48:30;;;;;;;;;;;7.10;99.90;;;;;;5068207;28;20012;-74
2024/01/04 13:50:57;;;;;;;;;;;7.10;99.90;;;;;;5047710;28;20288;-74
2024/01/04 13:53:23;;;;;;;;;;;7.50;99.90;;;;;;5039221;28;19956;-75
2024/01/04 13:55:49;;;;;;;;;;;7.10;99.90;;;;;;5047286;28;20360;-74
2024/01/04 13:58:14;;;;;;;;;;;7.10;99.90;;;;;;5049892;28;19928;-74
2024/01/04 14:00:40;;;;;;;;;;;7.00;99.90;;;;;;5065204;28;19916;-74
2024/01/04 14:03:05;;;;;;;;;;;7.10;99.90;;;;;;5063844;28;19972;-75
2024/01/04 14:05:31;;;;;;;;;;;7.00;99.90;;;;;;5035671;28;20043;-75
2024/01/04 14:07:56;;;;;;;;;;;7.00;99.90;;;;;;5067956;28;19920;-74
2024/01/04 14:10:22;;;;;;;;;;;7.00;99.90;;;;;;5050751;28;20311;-75
2024/01/04 14:12:49;;;;;;;;;;;6.90;99.90;;;;;;5048873;28;19943;-75
2024/01/04 14:15:14;;;;;;;;;;;6.80;99.90;;;;;;5046171;28;19925;-75
2024/01/04 14:17:40;;;;;;;;;;;6.70;99.90;;;;;;5047517;28;19931;-75
2024/01/04 14:20:10;;;;;;;;;;;6.70;99.90;;;;;;5040510;28;19932;-74
2024/01/04 14:22:35;;;;;;;;;;;6.60;99.90;;;;;;5044123;28;20011;-74
2024/01/04 14:25:02;;;;;;;;;;;6.60;99.90;;;;;;5050373;28;20011;-75